Thunder radar more information blitzortung!


Radar de pluja more information rain snow radar


Visita la nostra xarxa de llocs de meteo:

Template documentation
and downloads

And another site



No particular awareness of the weather is required.    There are no Weather-warnings

Pagina Historial Weather Underground text

Diari Resum May 11, 2017 Unitats:  Imperial    Mètric   Tant
« Previous Dia
SegĂźent Dia »
Diari Setmana Mensual Anual Personalitzada
  Maxima: Minima: Media:
Temperatura: TemperatureC °F 12.3 °F 15.6 °F
Punt de rosada: DewpointC °F 9.8 °F 12.6 °F
Humitat: Humidity % 69 % 82 %
Wind Speed: WindSpeedKMH mph 0.0 mph 4.1 mph
RĂ fegues de vent: WindSpeedGustKMH mph - -
Vent:- - SE
Pression baro: PressurehPa in 999.9 in -
Precipitacions: 14.0 in    
Historical Graphs
 
 
Dades de taula per May 11, 2017
Temps Temperatura Punt de rosada Pression baro Vent Wind Speed RĂ fegues de vent Humitat Rainfall Rate (Hourly)
TemperatureC °F DewpointC °F PressurehPa in Calm     Humidity % HourlyPrecipMM in
00:00 14.8 °F 11.6 °F 1001.9 in NE 4.8 mph 8.0 mph 81 % 0.0 in
00:02 15.8 °F 12.2 °F 1003.9 in NE 7.4 mph 7.4 mph 79 % 0.0 in
00:07 15.7 °F 12.3 °F 1003.9 in ENE 9.7 mph 9.7 mph 80 % 0.0 in
00:10 14.8 °F 11.6 °F 1001.9 in NE 4.8 mph 6.4 mph 81 % 0.0 in
00:20 14.7 °F 11.4 °F 1001.9 in NE 4.8 mph 6.4 mph 81 % 0.0 in
00:30 14.7 °F 11.4 °F 1001.9 in NE 4.8 mph 6.4 mph 81 % 0.0 in
00:40 14.8 °F 11.6 °F 1001.9 in NE 3.2 mph 6.4 mph 81 % 0.0 in
00:50 14.8 °F 11.6 °F 1000.9 in NE 3.2 mph 6.4 mph 81 % 0.0 in
01:00 14.8 °F 11.6 °F 1000.9 in NE 1.6 mph 3.2 mph 81 % 0.0 in
01:10 14.8 °F 11.4 °F 1000.9 in NE 1.6 mph 4.8 mph 80 % 0.0 in
01:20 14.8 °F 11.4 °F 1000.9 in NE 4.8 mph 4.8 mph 80 % 0.0 in
01:30 14.7 °F 11.3 °F 1000.9 in NE 3.2 mph 4.8 mph 80 % 0.0 in
01:40 14.8 °F 11.4 °F 999.9 in NE 3.2 mph 4.8 mph 80 % 0.0 in
01:50 14.8 °F 11.6 °F 999.9 in ENE 3.2 mph 8.0 mph 81 % 0.0 in
02:00 14.7 °F 11.4 °F 999.9 in East 4.8 mph 6.4 mph 81 % 0.0 in
02:10 14.8 °F 11.6 °F 999.9 in East 3.2 mph 9.7 mph 81 % 0.0 in
02:20 14.7 °F 11.4 °F 999.9 in East 3.2 mph 9.7 mph 81 % 0.0 in
02:30 14.7 °F 11.4 °F 999.9 in East 3.2 mph 4.8 mph 81 % 0.0 in
02:40 14.7 °F 11.4 °F 999.9 in East 3.2 mph 9.7 mph 81 % 0.0 in
02:50 14.7 °F 11.4 °F 999.9 in East 4.8 mph 9.7 mph 81 % 0.0 in
03:00 14.7 °F 11.4 °F 999.9 in ENE 1.6 mph 6.4 mph 81 % 0.0 in
03:10 14.6 °F 11.4 °F 999.9 in ENE 4.8 mph 6.4 mph 81 % 0.0 in
03:20 14.6 °F 11.7 °F 999.9 in NE 3.2 mph 6.4 mph 83 % 0.0 in
03:30 14.4 °F 11.6 °F 999.9 in ENE 1.6 mph 4.8 mph 83 % 0.0 in
03:40 14.4 °F 11.7 °F 1000.9 in East 1.6 mph 4.8 mph 84 % 0.0 in
03:50 14.3 °F 11.6 °F 999.9 in ENE 4.8 mph 4.8 mph 84 % 0.0 in
04:00 14.4 °F 11.9 °F 999.9 in NE 4.8 mph 4.8 mph 85 % 0.0 in
04:10 14.5 °F 12.2 °F 999.9 in NNE 1.6 mph 4.8 mph 86 % 0.0 in
04:20 14.4 °F 12.1 °F 999.9 in NE 3.2 mph 4.8 mph 86 % 0.0 in
04:30 14.5 °F 12.2 °F 999.9 in Calm   3.2 mph 86 % 0.0 in
04:40 14.4 °F 12.1 °F 1000.9 in Calm   3.2 mph 86 % 2.0 in
09:47 14.3 °F 12.2 °F 1000.9 in Calm   3.9 mph 87 % 4.1 in
09:52 14.3 °F 12.3 °F 1000.9 in Calm     88 % 5.3 in
09:57 14.2 °F 12.2 °F 999.9 in ENE 5.6 mph 5.6 mph 88 % 5.3 in
10:02 14.2 °F 12.2 °F 999.9 in ENE 5.6 mph 5.6 mph 88 % 5.3 in
10:03 14.2 °F 12.2 °F 999.9 in ENE 5.6 mph 5.6 mph 88 % 5.3 in
10:08 14.2 °F 12.2 °F 999.9 in ENE 5.6 mph 5.6 mph 88 % 5.3 in
10:13 14.2 °F 12.2 °F 999.9 in ENE 5.6 mph 5.6 mph 88 % 5.3 in
10:18 14.2 °F 12.2 °F 999.9 in ENE 5.6 mph 5.6 mph 88 % 5.3 in
10:23 14.2 °F 12.2 °F 999.9 in ENE 5.6 mph 5.6 mph 88 % 5.3 in
10:28 14.2 °F 12.2 °F 999.9 in ENE 5.6 mph 5.6 mph 88 % 5.3 in
10:33 14.2 °F 12.2 °F 999.9 in ENE 5.6 mph 5.6 mph 88 % 5.3 in
10:38 14.2 °F 12.2 °F 999.9 in ENE 5.6 mph 5.6 mph 88 % 5.3 in
10:43 14.2 °F 12.2 °F 999.9 in ENE 5.6 mph 5.6 mph 88 % 3.3 in
10:48 14.2 °F 12.2 °F 999.9 in ENE 5.6 mph 5.6 mph 88 % 1.3 in
10:53 14.2 °F 12.2 °F 999.9 in ENE 5.6 mph 5.6 mph 88 % 0.0 in
10:58 14.2 °F 12.2 °F 999.9 in ENE 5.6 mph 5.6 mph 88 % 0.0 in
11:03 14.2 °F 12.2 °F 999.9 in ENE 5.6 mph 5.6 mph 88 % 0.0 in
11:08 14.2 °F 12.2 °F 999.9 in ENE 5.6 mph 5.6 mph 88 % 0.0 in
11:13 14.2 °F 12.2 °F 999.9 in ENE 5.6 mph 5.6 mph 88 % 0.0 in
11:18 14.2 °F 12.2 °F 999.9 in ENE 5.6 mph 5.6 mph 88 % 0.0 in
11:23 14.2 °F 12.2 °F 999.9 in ENE 5.6 mph 5.6 mph 88 % 0.0 in
11:28 14.2 °F 12.2 °F 999.9 in ENE 5.6 mph 5.6 mph 88 % 0.0 in
11:33 14.2 °F 12.2 °F 999.9 in ENE 5.6 mph 5.6 mph 88 % 0.0 in
11:38 14.2 °F 12.2 °F 999.9 in ENE 5.6 mph 5.6 mph 88 % 0.0 in
11:43 14.2 °F 12.2 °F 999.9 in ENE 5.6 mph 5.6 mph 88 % 0.0 in
11:48 14.2 °F 12.2 °F 999.9 in ENE 5.6 mph 5.6 mph 88 % 0.0 in
11:53 14.2 °F 12.2 °F 999.9 in ENE 5.6 mph 5.6 mph 88 % 0.0 in
11:58 14.2 °F 12.2 °F 999.9 in ENE 5.6 mph 5.6 mph 88 % 0.0 in
12:03 14.2 °F 12.2 °F 999.9 in ENE 5.6 mph 5.6 mph 88 % 0.0 in
12:08 14.2 °F 12.2 °F 999.9 in ENE 5.6 mph 5.6 mph 88 % 0.0 in
12:13 14.2 °F 12.2 °F 999.9 in ENE 5.6 mph 5.6 mph 88 % 0.0 in
12:18 14.2 °F 12.2 °F 999.9 in ENE 5.6 mph 5.6 mph 88 % 0.0 in
12:23 14.2 °F 12.2 °F 999.9 in ENE 5.6 mph 5.6 mph 88 % 0.0 in
12:28 14.2 °F 12.2 °F 999.9 in ENE 5.6 mph 5.6 mph 88 % 0.0 in
12:29 14.2 °F 12.2 °F 999.9 in ENE 5.6 mph 5.6 mph 88 % 0.0 in
12:34 14.2 °F 12.2 °F 999.9 in ENE 5.6 mph 5.6 mph 88 % 0.0 in
12:39 14.2 °F 12.2 °F 999.9 in ENE 5.6 mph 5.6 mph 88 % 0.0 in
12:44 14.2 °F 12.2 °F 999.9 in ENE 5.6 mph 5.6 mph 88 % 0.0 in
12:49 14.2 °F 12.2 °F 999.9 in ENE 5.6 mph 5.6 mph 88 % 0.0 in
12:54 14.2 °F 12.2 °F 999.9 in ENE 5.6 mph 5.6 mph 88 % 0.0 in
12:59 14.2 °F 12.2 °F 999.9 in ENE 5.6 mph 5.6 mph 88 % 0.0 in
13:04 14.2 °F 12.2 °F 999.9 in ENE 5.6 mph 5.6 mph 88 % 0.0 in
13:09 14.2 °F 12.2 °F 999.9 in ENE 5.6 mph 5.6 mph 88 % 0.0 in
13:14 14.2 °F 12.2 °F 999.9 in ENE 5.6 mph 5.6 mph 88 % 0.0 in
13:19 14.2 °F 12.2 °F 999.9 in ENE 5.6 mph 5.6 mph 88 % 0.0 in
13:24 14.2 °F 12.2 °F 999.9 in ENE 5.6 mph 5.6 mph 88 % 0.0 in
13:29 14.2 °F 12.2 °F 999.9 in ENE 5.6 mph 5.6 mph 88 % 0.0 in
13:34 14.2 °F 12.2 °F 999.9 in ENE 5.6 mph 5.6 mph 88 % 0.0 in
13:39 14.2 °F 12.2 °F 999.9 in ENE 5.6 mph 5.6 mph 88 % 0.0 in
13:44 14.2 °F 12.2 °F 999.9 in ENE 5.6 mph 5.6 mph 88 % 0.0 in
13:49 14.2 °F 12.2 °F 999.9 in ENE 5.6 mph 5.6 mph 88 % 0.0 in
13:54 14.2 °F 12.2 °F 999.9 in ENE 5.6 mph 5.6 mph 88 % 0.0 in
13:59 14.2 °F 12.2 °F 999.9 in ENE 5.6 mph 5.6 mph 88 % 0.0 in
14:04 14.2 °F 12.2 °F 999.9 in ENE 5.6 mph 5.6 mph 88 % 0.0 in
14:09 14.2 °F 12.2 °F 999.9 in ENE 5.6 mph 5.6 mph 88 % 0.0 in
14:14 14.2 °F 12.2 °F 999.9 in ENE 5.6 mph 5.6 mph 88 % 0.0 in
14:19 14.2 °F 12.2 °F 999.9 in ENE 5.6 mph 5.6 mph 88 % 0.0 in
14:24 14.2 °F 12.2 °F 999.9 in ENE 5.6 mph 5.6 mph 88 % 0.0 in
14:29 14.2 °F 12.2 °F 999.9 in ENE 5.6 mph 5.6 mph 88 % 0.0 in
14:34 14.2 °F 12.2 °F 999.9 in ENE 5.6 mph 5.6 mph 88 % 0.0 in
14:39 14.2 °F 12.2 °F 999.9 in ENE 5.6 mph 5.6 mph 88 % 0.0 in
14:44 14.2 °F 12.2 °F 999.9 in ENE 5.6 mph 5.6 mph 88 % 0.0 in
14:49 14.2 °F 12.2 °F 999.9 in ENE 5.6 mph 5.6 mph 88 % 0.0 in
14:54 14.2 °F 12.2 °F 999.9 in ENE 5.6 mph 5.6 mph 88 % 0.0 in
14:59 14.2 °F 12.2 °F 999.9 in ENE 5.6 mph 5.6 mph 88 % 0.0 in
15:04 14.2 °F 12.2 °F 999.9 in ENE 5.6 mph 5.6 mph 88 % 0.0 in
15:09 14.2 °F 12.2 °F 999.9 in ENE 5.6 mph 5.6 mph 88 % 0.0 in
15:14 14.2 °F 12.2 °F 999.9 in ENE 5.6 mph 5.6 mph 88 % 0.0 in
15:24 14.2 °F 12.2 °F 999.9 in ENE 5.6 mph 5.6 mph 88 % 0.0 in
15:29 14.2 °F 12.2 °F 999.9 in ENE 5.6 mph 5.6 mph 88 % 0.0 in
15:34 14.2 °F 12.2 °F 999.9 in ENE 5.6 mph 5.6 mph 88 % 0.0 in
15:39 14.2 °F 12.2 °F 999.9 in ENE 5.6 mph 5.6 mph 88 % 0.0 in
15:44 14.2 °F 12.2 °F 999.9 in ENE 5.6 mph 5.6 mph 88 % 0.0 in
15:49 14.2 °F 12.2 °F 999.9 in ENE 5.6 mph 5.6 mph 88 % 0.0 in
15:54 14.2 °F 12.2 °F 999.9 in ENE 5.6 mph 5.6 mph 88 % 0.0 in
15:59 14.2 °F 12.2 °F 999.9 in ENE 5.6 mph 5.6 mph 88 % 0.0 in
16:04 14.2 °F 12.2 °F 999.9 in ENE 5.6 mph 5.6 mph 88 % 0.0 in
16:09 14.2 °F 12.2 °F 999.9 in ENE 5.6 mph 5.6 mph 88 % 0.0 in
16:14 14.2 °F 12.2 °F 999.9 in ENE 5.6 mph 5.6 mph 88 % 0.0 in
16:20 14.8 °F 11.9 °F 1000.9 in NE 5.6 mph 5.6 mph 83 % 0.0 in
16:25 15.0 °F 12.3 °F 1000.9 in ESE 5.6 mph 5.6 mph 84 % 0.0 in
16:30 15.0 °F 12.3 °F 1000.9 in NNE 3.7 mph 3.7 mph 84 % 8.6 in
16:35 15.1 °F 12.4 °F 1000.9 in ESE 3.7 mph 3.7 mph 84 % 8.6 in
16:40 15.7 °F 13.2 °F 1001.9 in South 2.6 mph   85 % 8.6 in
16:45 16.2 °F 13.5 °F 1001.9 in South 5.6 mph 5.6 mph 84 % 8.6 in
16:50 16.4 °F 13.7 °F 1001.9 in WSW 3.7 mph 3.9 mph 84 % 8.6 in
16:55 16.6 °F 13.7 °F 1001.9 in WSW 1.9 mph 1.9 mph 83 % 8.6 in
17:00 16.8 °F 14.1 °F 1001.9 in Calm     84 % 8.6 in
17:05 16.8 °F 14.1 °F 1001.9 in SSE 1.9 mph   84 % 8.6 in
17:10 16.9 °F 14.0 °F 1001.9 in SW 3.7 mph 3.7 mph 83 % 8.6 in
17:15 17.0 °F 14.3 °F 1001.9 in South 3.7 mph 3.7 mph 84 % 8.6 in
17:20 17.1 °F 14.4 °F 1001.9 in SSW 1.9 mph   84 % 8.6 in
17:25 17.2 °F 14.4 °F 1001.9 in SW 3.9 mph 3.9 mph 84 % 8.6 in
17:30 17.3 °F 14.4 °F 1001.9 in SW 5.6 mph 5.6 mph 83 % 0.0 in
17:35 17.9 °F 15.2 °F 1001.9 in SW 3.7 mph 3.7 mph 84 % 0.0 in
17:40 18.3 °F 15.2 °F 1000.9 in SW 9.3 mph 9.3 mph 82 % 0.0 in
17:45 18.6 °F 15.7 °F 1000.9 in West 3.7 mph 3.7 mph 83 % 0.0 in
17:50 18.8 °F 15.4 °F 1000.9 in South 7.4 mph 7.4 mph 81 % 0.0 in
17:55 19.2 °F 15.7 °F 1000.9 in SW 5.6 mph 5.6 mph 80 % 0.0 in
18:00 19.3 °F 15.6 °F 1000.9 in WNW 5.0 mph 5.0 mph 79 % 0.0 in
18:05 19.4 °F 15.4 °F 1000.9 in SSE 3.7 mph 3.7 mph 78 % 0.0 in
18:10 19.4 °F 15.3 °F 1000.9 in SE 1.9 mph   77 % 0.0 in
18:15 19.7 °F 15.6 °F 1000.9 in West 3.7 mph 3.7 mph 77 % 0.0 in
18:20 19.6 °F 15.3 °F 1000.9 in WNW 3.7 mph 3.7 mph 76 % 0.0 in
18:25 19.7 °F 15.2 °F 1000.9 in NNW 1.9 mph   75 % 0.0 in
18:30 20.0 °F 15.2 °F 1000.9 in West 2.6 mph   74 % 0.0 in
18:35 20.1 °F 14.9 °F 1000.9 in West 2.3 mph 2.3 mph 72 % 0.0 in
18:40 20.5 °F 15.3 °F 999.9 in WSW 3.9 mph   72 % 0.0 in
18:45 20.4 °F 14.9 °F 999.9 in NW 1.9 mph 1.9 mph 71 % 0.0 in
18:50 20.2 °F 14.6 °F 999.9 in NW 2.6 mph   70 % 0.0 in
18:55 20.1 °F 14.4 °F 1000.9 in NNE 3.9 mph 3.9 mph 70 % 0.0 in
19:00 19.8 °F 14.4 °F 1000.9 in NE 5.6 mph 5.6 mph 71 % 0.0 in
19:05 19.6 °F 14.2 °F 1000.9 in NNE 3.7 mph 3.7 mph 71 % 0.0 in
19:10 19.5 °F 14.1 °F 1000.9 in NE 3.7 mph 3.7 mph 71 % 0.0 in
19:15 19.5 °F 13.9 °F 1000.9 in NE 1.9 mph 1.9 mph 70 % 0.0 in
19:20 19.7 °F 14.3 °F 1000.9 in NW 1.9 mph   71 % 0.0 in
19:25 19.7 °F 14.1 °F 999.9 in ENE 1.9 mph 1.9 mph 70 % 0.0 in
19:30 19.6 °F 13.8 °F 999.9 in ESE 5.3 mph   69 % 0.0 in
19:31 19.6 °F 13.8 °F 999.9 in ESE 5.6 mph 5.6 mph 69 % 0.0 in
19:35 15.0 °F 11.9 °F 1002.9 in NE 3.2 mph 4.8 mph 82 % 0.0 in
19:36 19.5 °F 13.9 °F 999.9 in NNE 3.7 mph 3.7 mph 70 % 0.0 in
19:41 19.5 °F 13.7 °F 1000.9 in NNE 1.9 mph 1.9 mph 69 % 0.0 in
19:45 15.0 °F 12.1 °F 1002.9 in NNE 1.6 mph 3.2 mph 83 % 0.0 in
19:46 19.6 °F 14.0 °F 1000.9 in West 1.9 mph 1.9 mph 70 % 0.0 in
19:51 19.6 °F 13.8 °F 1000.9 in ESE 5.6 mph 5.6 mph 69 % 0.0 in
19:55 15.0 °F 12.3 °F 1003.9 in Calm   1.6 mph 84 % 0.0 in
19:56 19.4 °F 13.8 °F 1000.9 in East 5.6 mph 5.6 mph 70 % 0.0 in
20:01 19.3 °F 13.7 °F 1000.9 in SE 3.7 mph 3.7 mph 70 % 0.0 in
20:05 14.6 °F 11.7 °F 1003.9 in WNW 1.6 mph 3.2 mph 83 % 0.0 in
20:06 19.3 °F 13.9 °F 1000.9 in SW 3.9 mph   71 % 0.0 in
20:11 19.3 °F 14.1 °F 1000.9 in SW 9.3 mph 9.3 mph 72 % 0.0 in
20:15 14.7 °F 12.0 °F 1003.9 in WSW 1.6 mph 3.2 mph 84 % 0.0 in
20:16 19.2 °F 14.1 °F 1000.9 in South 3.7 mph 3.7 mph 72 % 0.0 in
20:21 19.1 °F 13.9 °F 1000.9 in SW 7.9 mph 7.9 mph 72 % 0.0 in
20:25 14.7 °F 12.0 °F 1002.9 in WSW 1.6 mph 3.2 mph 84 % 0.0 in
20:26 19.0 °F 13.8 °F 1000.9 in SW 5.6 mph 5.6 mph 72 % 0.0 in
20:31 18.8 °F 14.1 °F 1000.9 in SW 5.3 mph 5.3 mph 74 % 0.0 in
20:35 14.1 °F 11.4 °F 1003.9 in WSW 3.2 mph 4.8 mph 84 % 0.0 in
20:36 18.6 °F 13.9 °F 1000.9 in SSW 3.7 mph 3.7 mph 74 % 0.0 in
20:41 18.3 °F 13.6 °F 1001.9 in WSW 4.2 mph 4.2 mph 74 % 0.0 in
20:45 14.0 °F 11.3 °F 1003.9 in SW 3.2 mph 4.8 mph 84 % 0.0 in
20:46 18.2 °F 13.7 °F 1001.9 in Calm     75 % 0.0 in
20:51 18.0 °F 13.5 °F 1001.9 in West 1.9 mph 1.9 mph 75 % 0.0 in
20:55 13.9 °F 11.4 °F 1003.9 in SW 3.2 mph 4.8 mph 85 % 0.0 in
20:56 17.8 °F 13.3 °F 1001.9 in WNW 2.3 mph 2.3 mph 75 % 0.0 in
21:01 17.7 °F 13.2 °F 1001.9 in West 3.7 mph 3.7 mph 75 % 0.0 in
21:05 14.1 °F 11.8 °F 1002.9 in SW 1.6 mph 3.2 mph 86 % 0.0 in
21:06 17.6 °F 13.1 °F 1001.9 in West 3.7 mph 3.7 mph 75 % 0.0 in
21:11 17.6 °F 13.1 °F 1001.9 in WSW 3.9 mph 3.9 mph 75 % 0.0 in
21:15 14.1 °F 11.8 °F 1002.9 in WSW 1.6 mph 3.2 mph 86 % 0.0 in
21:16 17.5 °F 13.0 °F 1001.9 in West 5.6 mph 5.6 mph 75 % 0.0 in
21:21 17.4 °F 13.1 °F 1001.9 in West 5.6 mph 5.6 mph 76 % 0.0 in
21:25 13.9 °F 11.8 °F 1002.9 in Calm   3.2 mph 87 % 0.0 in
21:26 17.3 °F 13.0 °F 1000.9 in WSW 4.2 mph 4.2 mph 76 % 0.0 in
21:31 17.1 °F 12.8 °F 1000.9 in WSW 3.7 mph 3.7 mph 76 % 0.0 in
21:35 13.8 °F 11.7 °F 1002.9 in ENE 1.6 mph 3.2 mph 87 % 0.0 in
21:36 16.9 °F 13.1 °F 1000.9 in WSW 5.6 mph 5.6 mph 78 % 0.0 in
21:41 16.8 °F 12.9 °F 1001.9 in West 5.6 mph 5.6 mph 78 % 0.0 in
21:45 13.6 °F 11.3 °F 1002.9 in SW 3.2 mph 3.2 mph 86 % 0.0 in
21:46 16.7 °F 12.8 °F 1001.9 in SW 3.7 mph 3.7 mph 78 % 0.0 in
21:51 16.7 °F 13.1 °F 1001.9 in Calm     79 % 0.0 in
21:55 13.5 °F 11.2 °F 1002.9 in SW 3.2 mph 3.2 mph 86 % 0.0 in
21:56 16.6 °F 12.9 °F 1001.9 in West 1.9 mph   79 % 0.0 in
22:01 16.5 °F 12.8 °F 1001.9 in WNW 3.7 mph 3.7 mph 79 % 0.0 in
22:05 13.4 °F 11.1 °F 1002.9 in WSW 1.6 mph 4.8 mph 86 % 0.0 in
22:06 16.5 °F 12.8 °F 1001.9 in West 3.7 mph 3.7 mph 79 % 0.0 in
22:11 16.5 °F 12.8 °F 1001.9 in West 3.7 mph 3.7 mph 79 % 0.0 in
22:15 13.5 °F 11.4 °F 1002.9 in WSW 1.6 mph 3.2 mph 87 % 0.0 in
22:16 16.5 °F 12.8 °F 1001.9 in West 1.9 mph   79 % 0.0 in
22:21 16.4 °F 12.7 °F 1001.9 in NW 1.9 mph   79 % 0.0 in
22:25 13.6 °F 11.3 °F 1003.9 in WSW 3.2 mph 3.2 mph 86 % 0.0 in
22:26 16.5 °F 12.8 °F 1001.9 in Calm     79 % 0.0 in
22:31 16.4 °F 12.9 °F 1001.9 in Calm     80 % 0.0 in
22:35 13.5 °F 11.2 °F 1002.9 in WSW 1.6 mph 3.2 mph 86 % 0.0 in
22:36 16.4 °F 12.9 °F 1001.9 in NW 1.9 mph   80 % 0.0 in
22:41 16.3 °F 12.8 °F 1002.9 in Calm     80 % 0.0 in
22:45 13.3 °F 11.0 °F 1002.9 in West 3.2 mph 3.2 mph 86 % 0.0 in
22:46 16.3 °F 12.7 °F 1002.9 in WNW 3.7 mph 3.7 mph 79 % 0.0 in
22:51 16.3 °F 12.8 °F 1002.9 in West 1.9 mph   80 % 0.0 in
22:55 13.3 °F 11.0 °F 1002.9 in WSW 1.6 mph 3.2 mph 86 % 0.0 in
22:56 16.2 °F 12.7 °F 1002.9 in WNW 1.9 mph   80 % 0.0 in
23:01 16.2 °F 12.7 °F 1002.9 in WNW 1.9 mph 1.9 mph 80 % 0.0 in
23:05 13.2 °F 11.1 °F 1002.9 in WSW 1.6 mph 1.6 mph 87 % 0.0 in
23:06 16.2 °F 12.9 °F 1002.9 in WNW 3.7 mph 3.7 mph 81 % 0.0 in
23:11 16.2 °F 12.9 °F 1002.9 in West 5.6 mph 5.6 mph 81 % 0.0 in
23:15 12.8 °F 10.3 °F 1002.9 in SW 3.2 mph 4.8 mph 85 % 0.0 in
23:16 16.2 °F 12.9 °F 1002.9 in West 3.7 mph 3.7 mph 81 % 0.0 in
23:21 16.2 °F 12.9 °F 1002.9 in West 3.9 mph 3.9 mph 81 % 0.0 in
23:25 12.7 °F 10.2 °F 1002.9 in Calm   3.2 mph 85 % 0.0 in
23:26 16.3 °F 13.1 °F 1002.9 in West 3.7 mph 3.7 mph 81 % 0.0 in
23:31 16.2 °F 12.9 °F 1002.9 in West 4.7 mph 4.7 mph 81 % 0.0 in
23:35 12.6 °F 10.2 °F 1003.9 in West 1.6 mph 3.2 mph 85 % 0.0 in
23:36 16.3 °F 13.1 °F 1002.9 in WSW 7.4 mph 7.4 mph 81 % 0.0 in
23:41 16.2 °F 12.9 °F 1002.9 in WSW 4.2 mph 4.2 mph 81 % 0.0 in
23:45 12.3 °F 9.8 °F 1003.9 in WSW 3.2 mph 4.8 mph 85 % 0.0 in
23:46 16.1 °F 12.8 °F 1002.9 in WSW 3.9 mph 3.9 mph 81 % 0.0 in
23:51 15.9 °F 12.8 °F 1002.9 in SW 3.7 mph 3.7 mph 82 % 0.0 in
23:55 12.3 °F 9.8 °F 1002.9 in WSW 3.2 mph 3.2 mph 85 % 0.0 in
23:56 15.8 °F 12.6 °F 1002.9 in WSW 5.6 mph 5.6 mph 81 % 0.0 in
Meteo Sesrovires
Elogis d' Weather Underground - 2 mb

Guio original per  Jim McMurry - jmcmurry@mwt.net Adaptat per a la plantilla per  Wim van der Kuil - Leuven-Template.eu

Trobareu la nostra informacio del temps tambe a:

Weather Underground

AWEKAS